Jump to content


DELTA AIRLINES FLIGHT DL1726 FLOWN ON 09-24-2017 BY CAPTAIN JIM BOERMAN

Pilot StatsCaptain Jim Boerman (LDP136) • 4,616.9 total hours • 1,400 total flights [View Logbook]
FLIGHT DETAILS
StatusReceived and approved on 2017-09-24 at 13:09:24
Origin AirportRonald Reagan Washington Natl (KDCA) • Washington, Virginia, United States (15 feet MSL)
Filed Flight PlanFLIGHT PLANNER OFFLINE
Destination AirportLos Angeles Intl (KLAX) • Los Angeles, California, United States (126 feet MSL)
Alternate AirportOntario Intl (KONT) • Ontario, California, United States (944 feet MSL)
AirlineDelta Airlines
AircraftBoeing 757-200 | Winglets (75W / B757-200)
FS Aircraft UsedQWSim Boeing 757-200WL Delta N688DL QWHDT
Cruising AltitudeFL340
Distance Flown2,004 nautical miles
Passengers Onboard80 passengers (43.01% full)
DEPARTURE DETAILS
Time Out08:10:40
Taxi Data213,906 lbs total with 44,565 lbs of fuel onboard
Takeoff Data08:20:52 (10 minutes after leaving gate/ramp) • 212,496 lbs total • 6° pitch at 164 knots
Departure METARKDCA 241052Z 33005KT 10SM SCT250 19/16 A3009 RMK AO2 SLP189 T01940161 $
ARRIVAL DETAILS
Landing Data10:17:42 • 175,190 lbs total • 3° pitch doing 127 knots at a rate of -169.17 feet/minute with 5,180 lbs of fuel onboard
Time In10:24:21 (7 minutes after landing)
Ramp Weight174,521 lbs total
Total Fuel Used39,385 lbs
Total Block Time04:53:37 (4.9 hours) while 17 minutes were spent on the ground
Arrival METARKLAX 241653Z VRB03KT 10SM CLR 23/11 A2990 RMK AO2 SLP121 T02280111
MISCELLANEOUS DETAILS
LiveDISPATCH Version4.8.3.1
FS Version
FSUIPC Version4.93
OS VersionWindows 7 32-bit
Screen Resolution1920 x 1080
Pilot's CommentsNo Comments Reported
FLIGHT MAP